| Date | Time | Temp. (oF) | Dew Point (oF) | Rel. Hum. (%) | Press. (in.) | Wind Dir. | Wind Speed (mph) | Hourly Rainfall (in.) |
|
|---|---|---|---|---|---|---|---|---|---|
| 1 | 12/16 | 00:00 | 13 | -1 | 52 | 30.35 | WNW | 5 | 0.00 |
| 2 | 12/15 | 23:00 | 13 | -1 | 52 | 30.34 | WNW | 6 | 0.00 |
| 3 | 12/15 | 22:00 | 13 | -1 | 52 | 30.32 | W | 5 | 0.00 |
| 4 | 12/15 | 21:00 | 14 | -1 | 50 | 30.31 | WNW | 6 | 0.00 |
| 5 | 12/15 | 20:00 | 14 | -3 | 46 | 30.30 | WNW | 7 | 0.00 |
| 6 | 12/15 | 19:00 | 15 | -2 | 46 | 30.28 | WNW | 12 | 0.00 |
| 7 | 12/15 | 18:00 | 15 | -3 | 43 | 30.25 | ESE | 3 | 0.00 |
| 8 | 12/15 | 17:00 | 16 | -4 | 40 | 30.21 | WNW | 5 | 0.00 |
| 9 | 12/15 | 16:00 | 18 | -4 | 36 | 30.16 | SE | 10 | 0.00 |
| 10 | 12/15 | 15:00 | 19 | -4 | 34 | 30.14 | WNW | 10 | 0.00 |
| 11 | 12/15 | 14:00 | 21 | -3 | 33 | 30.10 | WNW | 13 | 0.00 |
| 12 | 12/15 | 13:00 | 18 | -5 | 35 | 30.09 | WNW | 13 | 0.00 |
| 13 | 12/15 | 12:00 | 19 | -5 | 33 | 30.08 | WNW | 11 | 0.00 |
| 14 | 12/15 | 11:00 | 20 | -3 | 35 | 30.08 | SSE | 13 | 0.00 |
| 15 | 12/15 | 10:00 | 21 | -1 | 37 | 30.07 | SSE | 17 | 0.00 |
| 16 | 12/15 | 09:00 | 19 | 0 | 41 | 30.03 | S | 16 | 0.00 |
| 17 | 12/15 | 08:00 | 19 | 1 | 46 | 30.01 | WNW | 13 | 0.00 |
| 18 | 12/15 | 07:00 | 20 | 2 | 46 | 29.98 | WNW | 7 | 0.00 |
| 19 | 12/15 | 06:00 | 22 | 2 | 43 | 29.96 | SW | 12 | 0.00 |
| 20 | 12/15 | 05:00 | 25 | 3 | 39 | 29.92 | WNW | 9 | 0.00 |
| 21 | 12/15 | 04:00 | 28 | 7 | 42 | 29.90 | SSW | 18 | 0.00 |
| 22 | 12/15 | 03:00 | 29 | 13 | 51 | 29.90 | SSW | 11 | 0.00 |
| 23 | 12/15 | 02:00 | 29 | 15 | 57 | 29.90 | WNW | 5 | 0.00 |
| 24 | 12/15 | 01:00 | 29 | 15 | 56 | 29.91 | WNW | 1 | 0.00 |